Terminal Aerodrome Forecast
Issued by NWS

Home | Current Version | Previous Version | Text Only | Print | Product List | Glossary On
Versions: 1 2 3 4 5 6 7 8 9 10 11 12
000
FTUS43 KEAX 270500
TAFSTJ
TAF
KSTJ 270520Z 2706/2806 36004KT P6SM SKC
     FM271000 35002KT 6SM BR SKC
      TEMPO 2710/2713 5SM BR
     FM271300 01005KT P6SM FEW030
     FM280200 18005KT P6SM FEW080=

USA.gov is the U.S. government's official web portal to all federal, state and local government web resources and services.